Pernille — 5BNZ2 — position and weather

sailwx.info

Track history (hours):
 
Tides and Currents Weather Stations Pressure Air Temp Water Temp Dewpoint Dewpoint Depression Visibility Wind Speed Wind Dir Waves Ship Positions

Pernille

Last reported at 2016-Jul-23 09:33 UTC. Time now 2016-Jul-23 13:13 UTC.
Position N 59°32' E 017°04'.

Length 82 m; draft 4.8 m.

Type: Cargo ship. MMSI: 212662000.

Date/timePositionNaut miles runAvg speedWind from/ knotsBaromVisibWave heightAir tempDewpointWater temp
2016-Jul-23 09:33N 59°32' E 017°04'1010.2
2016-Jul-23 08:34N 59°26' E 017°21'1110.8
2016-Jul-23 07:32N 59°17' E 017°34'25 7.2
2016-Jul-23 04:05N 58°53' E 017°43'610.7
2016-Jul-23 03:32N 58°48' E 017°46'212 9.7
2016-Jul-22 05:33N 55°33' E 015°12'1110.9
2016-Jul-22 04:33N 55°27' E 014°55'1110.8
2016-Jul-22 03:34N 55°22' E 014°39'1111.1
2016-Jul-22 02:34N 55°13' E 014°27'1110.9
2016-Jul-22 01:34N 55°05' E 014°15'1110.5
2016-Jul-22 00:34N 54°59' E 014°00'1110.7
2016-Jul-21 23:33N 54°55' E 013°43'1110.6
2016-Jul-21 22:34N 54°51' E 013°25'1110.6
2016-Jul-21 21:34N 54°47' E 013°08'1110.5
2016-Jul-21 20:34N 54°43' E 012°51'1010.4
2016-Jul-21 19:33N 54°39' E 012°35'1010.4
2016-Jul-21 18:34N 54°33' E 012°21'1010.4
2016-Jul-21 17:34N 54°24' E 012°10'1110.5
2016-Jul-21 16:33N 54°14' E 012°05'5 4.8
2016-Jul-21 15:31N 54°09' E 012°07'0 0.0
2016-Jul-21 13:31N 54°09' E 012°07'0 0.0
2016-Jul-21 12:22N 54°09' E 012°07'0 0.0
2016-Jul-21 11:10N 54°09' E 012°07'0 0.0
2016-Jul-21 10:31N 54°09' E 012°07'0 0.0
2016-Jul-21 09:04N 54°09' E 012°07'0 0.0
2016-Jul-21 08:31N 54°09' E 012°07'0 0.0
2016-Jul-21 07:28N 54°09' E 012°07'0 0.0
2016-Jul-21 06:25N 54°09' E 012°07'0 0.0
2016-Jul-21 05:28N 54°09' E 012°07'0 0.0
2016-Jul-21 04:31N 54°09' E 012°07'0 0.0
2016-Jul-21 03:28N 54°09' E 012°07'0 0.0
2016-Jul-21 02:31N 54°09' E 012°07'0 0.1
2016-Jul-21 01:33N 54°09' E 012°07'5 4.9
2016-Jul-21 00:30N 54°13' E 012°01'0 0.0
2016-Jul-20 23:27N 54°13' E 012°01'0 0.0
2016-Jul-20 22:33N 54°13' E 012°01'0 0.0
2016-Jul-20 21:30N 54°13' E 012°01'0 0.0
2016-Jul-20 20:33N 54°13' E 012°01'0 0.0
2016-Jul-20 19:30N 54°13' E 012°01'0 0.0
2016-Jul-20 18:27N 54°13' E 012°01'0 0.0
2016-Jul-20 17:33N 54°13' E 012°01'4 3.1
2016-Jul-20 16:25N 54°16' E 011°58'910.4
2016-Jul-20 15:33N 54°22' E 011°46'1010.4
2016-Jul-20 14:33N 54°28' E 011°31'1010.2
2016-Jul-20 13:33N 54°33' E 011°16'6 6.4
2016-Jul-20 12:33N 54°39' E 011°15'0 0.0
2016-Jul-20 11:30N 54°39' E 011°15'0 0.0
2016-Jul-20 10:33N 54°39' E 011°15'0 0.0
2016-Jul-20 09:33N 54°39' E 011°15'0 0.0
2016-Jul-20 08:33N 54°39' E 011°15'0 0.0
2016-Jul-20 07:33N 54°39' E 011°15'0 0.0
2016-Jul-20 06:33N 54°39' E 011°15'0 0.0
2016-Jul-20 05:33N 54°39' E 011°15'0 0.0
2016-Jul-20 04:33N 54°39' E 011°15'0 0.0
2016-Jul-20 03:33N 54°39' E 011°15'0 0.0
2016-Jul-20 02:33N 54°39' E 011°15'0 0.0
2016-Jul-20 01:33N 54°39' E 011°15'0 0.0
2016-Jul-20 00:33N 54°39' E 011°15'0 0.0
2016-Jul-19 23:33N 54°39' E 011°15'0 0.0
2016-Jul-19 22:33N 54°39' E 011°15'0 0.0
2016-Jul-19 21:33N 54°39' E 011°15'0 0.0
2016-Jul-19 20:33N 54°39' E 011°15'0 0.0
2016-Jul-19 19:33N 54°39' E 011°15'0 0.0
2016-Jul-19 18:33N 54°39' E 011°15'0 0.0
2016-Jul-19 17:33N 54°39' E 011°15'0 0.0
2016-Jul-19 16:33N 54°39' E 011°15'0 0.0
2016-Jul-19 15:33N 54°39' E 011°15'0 0.0
2016-Jul-19 14:33N 54°39' E 011°15'0 0.0
2016-Jul-19 13:33N 54°39' E 011°15'0 0.0
2016-Jul-19 12:33N 54°39' E 011°15'0 0.0
2016-Jul-19 11:33N 54°39' E 011°15'0 0.0
2016-Jul-19 10:33N 54°39' E 011°15'0 0.0
2016-Jul-19 09:33N 54°39' E 011°15'0 0.1
2016-Jul-19 08:33N 54°39' E 011°15'0 0.0
2016-Jul-19 07:33N 54°39' E 011°15'0 0.0
2016-Jul-19 04:33N 54°39' E 011°15'0 0.0
2016-Jul-19 03:33N 54°39' E 011°15'3 3.3
2016-Jul-19 02:33N 54°36' E 011°13'10 9.5
2016-Jul-19 01:33N 54°40' E 010°58'10 9.7
2016-Jul-19 00:33N 54°49' E 010°52'1010.5
2016-Jul-18 23:33N 54°58' E 010°59'59 9.8
2016-Jul-18 17:33N 55°55' E 010°29'1010.1
2016-Jul-18 16:34N 56°04' E 010°21'7 6.8
2016-Jul-18 15:33N 56°09' E 010°13'0 0.0
2016-Jul-18 14:33N 56°09' E 010°13'0 0.0
2016-Jul-18 13:33N 56°09' E 010°13'0 0.0
2016-Jul-18 12:33N 56°09' E 010°13'0 0.0
2016-Jul-18 11:33N 56°09' E 010°13'0 0.0
2016-Jul-18 10:33N 56°09' E 010°13'0 0.0
2016-Jul-18 09:33N 56°09' E 010°13'0 0.0
2016-Jul-18 08:33N 56°09' E 010°13'0 0.0
2016-Jul-18 07:33N 56°09' E 010°13'0 0.0
2016-Jul-18 06:33N 56°09' E 010°13'0 0.0
2016-Jul-18 05:33N 56°09' E 010°13'0 0.0
2016-Jul-18 04:33N 56°09' E 010°13'0 0.0
2016-Jul-18 03:33N 56°09' E 010°13'0 0.0
2016-Jul-18 02:33N 56°09' E 010°13'0 0.0
2016-Jul-18 01:33N 56°09' E 010°13'0 0.0
2016-Jul-18 00:33N 56°09' E 010°13'0 0.0
2016-Jul-17 23:33N 56°09' E 010°13'0 0.0
2016-Jul-17 22:33N 56°09' E 010°13'0 0.0
2016-Jul-17 21:33N 56°09' E 010°13'0 0.0
2016-Jul-17 20:33N 56°09' E 010°13'0 0.0
2016-Jul-17 19:33N 56°09' E 010°13'0 0.0
2016-Jul-17 18:33N 56°09' E 010°13'0 0.0
2016-Jul-17 17:33N 56°09' E 010°13'0 0.0
2016-Jul-17 16:33N 56°09' E 010°13'0 0.0
2016-Jul-17 15:33N 56°09' E 010°13'0 0.0
2016-Jul-17 14:33N 56°09' E 010°13'0 0.0
2016-Jul-17 13:33N 56°09' E 010°13'0 0.0
2016-Jul-17 12:33N 56°09' E 010°13'0 0.0
2016-Jul-17 11:30N 56°09' E 010°13'0 0.0
2016-Jul-17 10:33N 56°09' E 010°13'0 0.0
2016-Jul-17 09:33N 56°09' E 010°13'0 0.0
2016-Jul-17 08:33N 56°09' E 010°13'0 0.0
2016-Jul-17 07:30N 56°09' E 010°13'0 0.0
2016-Jul-17 06:33N 56°09' E 010°13'0 0.0
2016-Jul-17 04:33N 56°09' E 010°13'0 0.0
2016-Jul-17 03:33N 56°09' E 010°13'0 0.0
2016-Jul-17 02:33N 56°09' E 010°13'0 0.0
2016-Jul-17 01:33N 56°09' E 010°13'0 0.0
2016-Jul-17 00:30N 56°09' E 010°13'0 0.0
2016-Jul-16 23:33N 56°09' E 010°13'0 0.0
2016-Jul-16 22:33N 56°09' E 010°13'0 0.0
2016-Jul-16 21:31N 56°09' E 010°13'0 0.0
2016-Jul-16 20:28N 56°09' E 010°13'0 0.0
2016-Jul-16 19:31N 56°09' E 010°13'0 0.0
2016-Jul-16 18:31N 56°09' E 010°13'0 0.0
2016-Jul-16 17:31N 56°09' E 010°13'0 0.0
2016-Jul-16 16:31N 56°09' E 010°13'0 0.0
2016-Jul-16 15:31N 56°09' E 010°13'0 0.0
2016-Jul-16 14:31N 56°09' E 010°13'0 0.0
2016-Jul-16 13:31N 56°09' E 010°13'0 0.0
2016-Jul-16 12:31N 56°09' E 010°13'0 0.0
2016-Jul-16 11:31N 56°09' E 010°13'0 0.0
2016-Jul-16 10:31N 56°09' E 010°13'0 0.0
2016-Jul-16 09:31N 56°09' E 010°13'0 0.0
2016-Jul-16 08:31N 56°09' E 010°13'0 0.0
2016-Jul-16 07:31N 56°09' E 010°13'0 0.0
2016-Jul-16 06:31N 56°09' E 010°13'0 0.0
2016-Jul-16 04:31N 56°09' E 010°13'0 0.0
2016-Jul-16 03:31N 56°09' E 010°13'0 0.0
2016-Jul-16 02:31N 56°09' E 010°13'0 0.0
2016-Jul-16 01:31N 56°09' E 010°13'0 0.0
2016-Jul-16 00:31N 56°09' E 010°13'0 0.0
2016-Jul-15 23:31N 56°09' E 010°13'0 0.0
2016-Jul-15 22:31N 56°09' E 010°13'0 0.0
2016-Jul-15 21:31N 56°09' E 010°13'0 0.0
2016-Jul-15 20:31N 56°09' E 010°13'0 0.0
2016-Jul-15 19:31N 56°09' E 010°13'0 0.0
2016-Jul-15 18:31N 56°09' E 010°13'0 0.0
2016-Jul-15 17:31N 56°09' E 010°13'0 0.0
2016-Jul-15 16:31N 56°09' E 010°13'0 0.0
2016-Jul-15 15:31N 56°09' E 010°13'0 0.0
2016-Jul-15 14:31N 56°09' E 010°13'0 0.0
2016-Jul-15 13:31N 56°09' E 010°13'0 0.0
2016-Jul-15 12:31N 56°09' E 010°13'0 0.0
2016-Jul-15 11:31N 56°09' E 010°13'0 0.0
2016-Jul-15 10:31N 56°09' E 010°13'0 0.0
2016-Jul-15 09:31N 56°09' E 010°13'0 0.0
2016-Jul-15 08:31N 56°09' E 010°13'0 0.0
2016-Jul-15 07:31N 56°09' E 010°13'0 0.0
2016-Jul-15 06:31N 56°09' E 010°13'0 0.0
2016-Jul-15 05:31N 56°09' E 010°13'0 0.0
2016-Jul-15 04:31N 56°09' E 010°13'0 0.0
2016-Jul-15 03:31N 56°09' E 010°13'0 0.0
2016-Jul-15 02:31N 56°09' E 010°13'0 0.0
2016-Jul-15 01:31N 56°09' E 010°13'0 0.0
2016-Jul-15 00:31N 56°09' E 010°13'0 0.0
2016-Jul-14 23:31N 56°09' E 010°13'0 0.0
2016-Jul-14 22:31N 56°09' E 010°13'0 0.0
2016-Jul-14 21:31N 56°09' E 010°13'0 0.0
2016-Jul-14 20:31N 56°09' E 010°13'0 0.0
2016-Jul-14 19:31N 56°09' E 010°13'0 0.0
2016-Jul-14 18:31N 56°09' E 010°13'0 0.0
2016-Jul-14 17:31N 56°09' E 010°13'0 0.0
2016-Jul-14 16:31N 56°09' E 010°13'0 0.0
2016-Jul-14 15:31N 56°09' E 010°13'0 0.0
2016-Jul-14 14:31N 56°09' E 010°13'0 0.0
2016-Jul-14 13:31N 56°09' E 010°13'0 0.0
2016-Jul-14 12:28N 56°09' E 010°13'0 0.0
2016-Jul-14 11:31N 56°09' E 010°13'0 0.0
2016-Jul-14 10:31N 56°09' E 010°13'0 0.0
2016-Jul-14 09:31N 56°09' E 010°13'0 0.0
2016-Jul-14 08:31N 56°09' E 010°13'0 0.0
2016-Jul-14 07:31N 56°09' E 010°13'0 0.0
2016-Jul-14 06:31N 56°09' E 010°13'0 0.0
2016-Jul-14 05:31N 56°09' E 010°13'0 0.0
2016-Jul-14 04:31N 56°09' E 010°13'0 0.0
2016-Jul-14 03:31N 56°09' E 010°13'0 0.0
2016-Jul-14 02:28N 56°09' E 010°13'0 0.0
2016-Jul-14 01:31N 56°09' E 010°13'0 0.0
2016-Jul-14 00:31N 56°09' E 010°13'0 0.0
2016-Jul-13 23:31N 56°09' E 010°13'0 0.0
2016-Jul-13 22:31N 56°09' E 010°13'0 0.0
2016-Jul-13 21:31N 56°09' E 010°13'0 0.0
2016-Jul-13 20:31N 56°09' E 010°13'0 0.0
2016-Jul-13 19:31N 56°09' E 010°13'0 0.0
2016-Jul-13 18:31N 56°09' E 010°13'0 0.0
2016-Jul-13 17:31N 56°09' E 010°13'0 0.0
2016-Jul-13 16:31N 56°09' E 010°13'0 0.3
2016-Jul-13 15:34N 56°09' E 010°13'0 0.4
2016-Jul-13 14:31N 56°09' E 010°13'0 0.0
2016-Jul-13 13:31N 56°09' E 010°13'0 0.0
2016-Jul-13 12:31N 56°09' E 010°13'0 0.0
2016-Jul-13 11:31N 56°09' E 010°13'0 0.0
2016-Jul-13 10:31N 56°09' E 010°13'  
Track history (hours):
 
Tides and Currents Weather Stations Pressure Air Temp Water Temp Dewpoint Dewpoint Depression Visibility Wind Speed Wind Dir Waves Ship Positions

Pernille

Last reported at 2016-Jul-23 09:33 UTC. Time now 2016-Jul-23 13:13 UTC.
Position N 59°32' E 017°04'.

Length 82 m; draft 4.8 m.

Type: Cargo ship. MMSI: 212662000.

Date/timePositionNaut miles runAvg speedWind from/ knotsBaromVisibWave heightAir tempDewpointWater temp
2016-Jul-23 09:33N 59°32' E 017°04'1010.2
2016-Jul-23 08:34N 59°26' E 017°21'1110.8
2016-Jul-23 07:32N 59°17' E 017°34'25 7.2
2016-Jul-23 04:05N 58°53' E 017°43'610.7
2016-Jul-23 03:32N 58°48' E 017°46'212 9.7
2016-Jul-22 05:33N 55°33' E 015°12'1110.9
2016-Jul-22 04:33N 55°27' E 014°55'1110.8
2016-Jul-22 03:34N 55°22' E 014°39'1111.1
2016-Jul-22 02:34N 55°13' E 014°27'1110.9
2016-Jul-22 01:34N 55°05' E 014°15'1110.5
2016-Jul-22 00:34N 54°59' E 014°00'1110.7
2016-Jul-21 23:33N 54°55' E 013°43'1110.6
2016-Jul-21 22:34N 54°51' E 013°25'1110.6
2016-Jul-21 21:34N 54°47' E 013°08'1110.5
2016-Jul-21 20:34N 54°43' E 012°51'1010.4
2016-Jul-21 19:33N 54°39' E 012°35'1010.4
2016-Jul-21 18:34N 54°33' E 012°21'1010.4
2016-Jul-21 17:34N 54°24' E 012°10'1110.5
2016-Jul-21 16:33N 54°14' E 012°05'5 4.8
2016-Jul-21 15:31N 54°09' E 012°07'0 0.0
2016-Jul-21 13:31N 54°09' E 012°07'0 0.0
2016-Jul-21 12:22N 54°09' E 012°07'0 0.0
2016-Jul-21 11:10N 54°09' E 012°07'0 0.0
2016-Jul-21 10:31N 54°09' E 012°07'0 0.0
2016-Jul-21 09:04N 54°09' E 012°07'0 0.0
2016-Jul-21 08:31N 54°09' E 012°07'0 0.0
2016-Jul-21 07:28N 54°09' E 012°07'0 0.0
2016-Jul-21 06:25N 54°09' E 012°07'0 0.0
2016-Jul-21 05:28N 54°09' E 012°07'0 0.0
2016-Jul-21 04:31N 54°09' E 012°07'0 0.0
2016-Jul-21 03:28N 54°09' E 012°07'0 0.0
2016-Jul-21 02:31N 54°09' E 012°07'0 0.1
2016-Jul-21 01:33N 54°09' E 012°07'5 4.9
2016-Jul-21 00:30N 54°13' E 012°01'0 0.0
2016-Jul-20 23:27N 54°13' E 012°01'0 0.0
2016-Jul-20 22:33N 54°13' E 012°01'0 0.0
2016-Jul-20 21:30N 54°13' E 012°01'0 0.0
2016-Jul-20 20:33N 54°13' E 012°01'0 0.0
2016-Jul-20 19:30N 54°13' E 012°01'0 0.0
2016-Jul-20 18:27N 54°13' E 012°01'0 0.0
2016-Jul-20 17:33N 54°13' E 012°01'4 3.1
2016-Jul-20 16:25N 54°16' E 011°58'910.4
2016-Jul-20 15:33N 54°22' E 011°46'1010.4
2016-Jul-20 14:33N 54°28' E 011°31'1010.2
2016-Jul-20 13:33N 54°33' E 011°16'6 6.4
2016-Jul-20 12:33N 54°39' E 011°15'0 0.0
2016-Jul-20 11:30N 54°39' E 011°15'0 0.0
2016-Jul-20 10:33N 54°39' E 011°15'0 0.0
2016-Jul-20 09:33N 54°39' E 011°15'0 0.0
2016-Jul-20 08:33N 54°39' E 011°15'0 0.0
2016-Jul-20 07:33N 54°39' E 011°15'0 0.0
2016-Jul-20 06:33N 54°39' E 011°15'0 0.0
2016-Jul-20 05:33N 54°39' E 011°15'0 0.0
2016-Jul-20 04:33N 54°39' E 011°15'0 0.0
2016-Jul-20 03:33N 54°39' E 011°15'0 0.0
2016-Jul-20 02:33N 54°39' E 011°15'0 0.0
2016-Jul-20 01:33N 54°39' E 011°15'0 0.0
2016-Jul-20 00:33N 54°39' E 011°15'0 0.0
2016-Jul-19 23:33N 54°39' E 011°15'0 0.0
2016-Jul-19 22:33N 54°39' E 011°15'0 0.0
2016-Jul-19 21:33N 54°39' E 011°15'0 0.0
2016-Jul-19 20:33N 54°39' E 011°15'0 0.0
2016-Jul-19 19:33N 54°39' E 011°15'0 0.0
2016-Jul-19 18:33N 54°39' E 011°15'0 0.0
2016-Jul-19 17:33N 54°39' E 011°15'0 0.0
2016-Jul-19 16:33N 54°39' E 011°15'0 0.0
2016-Jul-19 15:33N 54°39' E 011°15'0 0.0
2016-Jul-19 14:33N 54°39' E 011°15'0 0.0
2016-Jul-19 13:33N 54°39' E 011°15'0 0.0
2016-Jul-19 12:33N 54°39' E 011°15'0 0.0
2016-Jul-19 11:33N 54°39' E 011°15'0 0.0
2016-Jul-19 10:33N 54°39' E 011°15'0 0.0
2016-Jul-19 09:33N 54°39' E 011°15'0 0.1
2016-Jul-19 08:33N 54°39' E 011°15'0 0.0
2016-Jul-19 07:33N 54°39' E 011°15'0 0.0
2016-Jul-19 04:33N 54°39' E 011°15'0 0.0
2016-Jul-19 03:33N 54°39' E 011°15'3 3.3
2016-Jul-19 02:33N 54°36' E 011°13'10 9.5
2016-Jul-19 01:33N 54°40' E 010°58'10 9.7
2016-Jul-19 00:33N 54°49' E 010°52'1010.5
2016-Jul-18 23:33N 54°58' E 010°59'59 9.8
2016-Jul-18 17:33N 55°55' E 010°29'1010.1
2016-Jul-18 16:34N 56°04' E 010°21'7 6.8
2016-Jul-18 15:33N 56°09' E 010°13'0 0.0
2016-Jul-18 14:33N 56°09' E 010°13'0 0.0
2016-Jul-18 13:33N 56°09' E 010°13'0 0.0
2016-Jul-18 12:33N 56°09' E 010°13'0 0.0
2016-Jul-18 11:33N 56°09' E 010°13'0 0.0
2016-Jul-18 10:33N 56°09' E 010°13'0 0.0
2016-Jul-18 09:33N 56°09' E 010°13'0 0.0
2016-Jul-18 08:33N 56°09' E 010°13'0 0.0
2016-Jul-18 07:33N 56°09' E 010°13'0 0.0
2016-Jul-18 06:33N 56°09' E 010°13'0 0.0
2016-Jul-18 05:33N 56°09' E 010°13'0 0.0
2016-Jul-18 04:33N 56°09' E 010°13'0 0.0
2016-Jul-18 03:33N 56°09' E 010°13'0 0.0
2016-Jul-18 02:33N 56°09' E 010°13'0 0.0
2016-Jul-18 01:33N 56°09' E 010°13'0 0.0
2016-Jul-18 00:33N 56°09' E 010°13'0 0.0
2016-Jul-17 23:33N 56°09' E 010°13'0 0.0
2016-Jul-17 22:33N 56°09' E 010°13'0 0.0
2016-Jul-17 21:33N 56°09' E 010°13'0 0.0
2016-Jul-17 20:33N 56°09' E 010°13'0 0.0
2016-Jul-17 19:33N 56°09' E 010°13'0 0.0
2016-Jul-17 18:33N 56°09' E 010°13'0 0.0
2016-Jul-17 17:33N 56°09' E 010°13'0 0.0
2016-Jul-17 16:33N 56°09' E 010°13'0 0.0
2016-Jul-17 15:33N 56°09' E 010°13'0 0.0
2016-Jul-17 14:33N 56°09' E 010°13'0 0.0
2016-Jul-17 13:33N 56°09' E 010°13'0 0.0
2016-Jul-17 12:33N 56°09' E 010°13'0 0.0
2016-Jul-17 11:30N 56°09' E 010°13'0 0.0
2016-Jul-17 10:33N 56°09' E 010°13'0 0.0
2016-Jul-17 09:33N 56°09' E 010°13'0 0.0
2016-Jul-17 08:33N 56°09' E 010°13'0 0.0
2016-Jul-17 07:30N 56°09' E 010°13'0 0.0
2016-Jul-17 06:33N 56°09' E 010°13'0 0.0
2016-Jul-17 04:33N 56°09' E 010°13'0 0.0
2016-Jul-17 03:33N 56°09' E 010°13'0 0.0
2016-Jul-17 02:33N 56°09' E 010°13'0 0.0
2016-Jul-17 01:33N 56°09' E 010°13'0 0.0
2016-Jul-17 00:30N 56°09' E 010°13'0 0.0
2016-Jul-16 23:33N 56°09' E 010°13'0 0.0
2016-Jul-16 22:33N 56°09' E 010°13'0 0.0
2016-Jul-16 21:31N 56°09' E 010°13'0 0.0
2016-Jul-16 20:28N 56°09' E 010°13'0 0.0
2016-Jul-16 19:31N 56°09' E 010°13'0 0.0
2016-Jul-16 18:31N 56°09' E 010°13'0 0.0
2016-Jul-16 17:31N 56°09' E 010°13'0 0.0
2016-Jul-16 16:31N 56°09' E 010°13'0 0.0
2016-Jul-16 15:31N 56°09' E 010°13'0 0.0
2016-Jul-16 14:31N 56°09' E 010°13'0 0.0
2016-Jul-16 13:31N 56°09' E 010°13'0 0.0
2016-Jul-16 12:31N 56°09' E 010°13'0 0.0
2016-Jul-16 11:31N 56°09' E 010°13'0 0.0
2016-Jul-16 10:31N 56°09' E 010°13'0 0.0
2016-Jul-16 09:31N 56°09' E 010°13'0 0.0
2016-Jul-16 08:31N 56°09' E 010°13'0 0.0
2016-Jul-16 07:31N 56°09' E 010°13'0 0.0
2016-Jul-16 06:31N 56°09' E 010°13'0 0.0
2016-Jul-16 04:31N 56°09' E 010°13'0 0.0
2016-Jul-16 03:31N 56°09' E 010°13'0 0.0
2016-Jul-16 02:31N 56°09' E 010°13'0 0.0
2016-Jul-16 01:31N 56°09' E 010°13'0 0.0
2016-Jul-16 00:31N 56°09' E 010°13'0 0.0
2016-Jul-15 23:31N 56°09' E 010°13'0 0.0
2016-Jul-15 22:31N 56°09' E 010°13'0 0.0
2016-Jul-15 21:31N 56°09' E 010°13'0 0.0
2016-Jul-15 20:31N 56°09' E 010°13'0 0.0
2016-Jul-15 19:31N 56°09' E 010°13'0 0.0
2016-Jul-15 18:31N 56°09' E 010°13'0 0.0
2016-Jul-15 17:31N 56°09' E 010°13'0 0.0
2016-Jul-15 16:31N 56°09' E 010°13'0 0.0
2016-Jul-15 15:31N 56°09' E 010°13'0 0.0
2016-Jul-15 14:31N 56°09' E 010°13'0 0.0
2016-Jul-15 13:31N 56°09' E 010°13'0 0.0
2016-Jul-15 12:31N 56°09' E 010°13'0 0.0
2016-Jul-15 11:31N 56°09' E 010°13'0 0.0
2016-Jul-15 10:31N 56°09' E 010°13'0 0.0
2016-Jul-15 09:31N 56°09' E 010°13'0 0.0
2016-Jul-15 08:31N 56°09' E 010°13'0 0.0
2016-Jul-15 07:31N 56°09' E 010°13'0 0.0
2016-Jul-15 06:31N 56°09' E 010°13'0 0.0
2016-Jul-15 05:31N 56°09' E 010°13'0 0.0
2016-Jul-15 04:31N 56°09' E 010°13'0 0.0
2016-Jul-15 03:31N 56°09' E 010°13'0 0.0
2016-Jul-15 02:31N 56°09' E 010°13'0 0.0
2016-Jul-15 01:31N 56°09' E 010°13'0 0.0
2016-Jul-15 00:31N 56°09' E 010°13'0 0.0
2016-Jul-14 23:31N 56°09' E 010°13'0 0.0
2016-Jul-14 22:31N 56°09' E 010°13'0 0.0
2016-Jul-14 21:31N 56°09' E 010°13'0 0.0
2016-Jul-14 20:31N 56°09' E 010°13'0 0.0
2016-Jul-14 19:31N 56°09' E 010°13'0 0.0
2016-Jul-14 18:31N 56°09' E 010°13'0 0.0
2016-Jul-14 17:31N 56°09' E 010°13'0 0.0
2016-Jul-14 16:31N 56°09' E 010°13'0 0.0
2016-Jul-14 15:31N 56°09' E 010°13'0 0.0
2016-Jul-14 14:31N 56°09' E 010°13'0 0.0
2016-Jul-14 13:31N 56°09' E 010°13'0 0.0
2016-Jul-14 12:28N 56°09' E 010°13'0 0.0
2016-Jul-14 11:31N 56°09' E 010°13'0 0.0
2016-Jul-14 10:31N 56°09' E 010°13'0 0.0
2016-Jul-14 09:31N 56°09' E 010°13'0 0.0
2016-Jul-14 08:31N 56°09' E 010°13'0 0.0
2016-Jul-14 07:31N 56°09' E 010°13'0 0.0
2016-Jul-14 06:31N 56°09' E 010°13'0 0.0
2016-Jul-14 05:31N 56°09' E 010°13'0 0.0
2016-Jul-14 04:31N 56°09' E 010°13'0 0.0
2016-Jul-14 03:31N 56°09' E 010°13'0 0.0
2016-Jul-14 02:28N 56°09' E 010°13'0 0.0
2016-Jul-14 01:31N 56°09' E 010°13'0 0.0
2016-Jul-14 00:31N 56°09' E 010°13'0 0.0
2016-Jul-13 23:31N 56°09' E 010°13'0 0.0
2016-Jul-13 22:31N 56°09' E 010°13'0 0.0
2016-Jul-13 21:31N 56°09' E 010°13'0 0.0
2016-Jul-13 20:31N 56°09' E 010°13'0 0.0
2016-Jul-13 19:31N 56°09' E 010°13'0 0.0
2016-Jul-13 18:31N 56°09' E 010°13'0 0.0
2016-Jul-13 17:31N 56°09' E 010°13'0 0.0
2016-Jul-13 16:31N 56°09' E 010°13'0 0.3
2016-Jul-13 15:34N 56°09' E 010°13'0 0.4
2016-Jul-13 14:31N 56°09' E 010°13'0 0.0
2016-Jul-13 13:31N 56°09' E 010°13'0 0.0
2016-Jul-13 12:31N 56°09' E 010°13'0 0.0
2016-Jul-13 11:31N 56°09' E 010°13'0 0.0
2016-Jul-13 10:31N 56°09' E 010°13'  

Dump ship's entire track history